Time;durP1;ratioP1;P1;durP2;ratioP2;P2;SDS_P1;SDS_P2;PMS_P1;PMS_P2;Temp;Humidity;BMP_temperature;BMP_pressure;BME280_temperature;BME280_humidity;BME280_pressure;Samples;Min_cycle;Max_cycle;Signal;HPM_P1;HPM_P2
2021/05/14 00:00:59;;;;;;;7.13;6.53;;;9.50;99.90;;;;;;5071436;28;20199;-77
2021/05/14 00:03:26;;;;;;;7.30;6.80;;;9.40;99.90;;;;;;5067856;28;20570;-77
2021/05/14 00:05:52;;;;;;;7.13;6.63;;;9.40;99.90;;;;;;5071681;28;20198;-77
2021/05/14 00:08:18;;;;;;;7.30;6.70;;;9.40;99.90;;;;;;5067464;28;20242;-77
2021/05/14 00:10:45;;;;;;;7.00;6.50;;;9.40;99.90;;;;;;5069074;28;20201;-77
2021/05/14 00:13:12;;;;;;;6.90;6.50;;;9.40;99.90;;;;;;5071785;28;20259;-77
2021/05/14 00:15:39;;;;;;;7.03;6.57;;;9.40;99.90;;;;;;5069931;28;20674;-78
2021/05/14 00:18:06;;;;;;;7.10;6.60;;;9.40;99.90;;;;;;5072081;28;20218;-77
2021/05/14 00:20:33;;;;;;;7.17;6.67;;;9.40;99.90;;;;;;5066763;28;20206;-78
2021/05/14 00:22:59;;;;;;;6.73;6.33;;;9.40;99.90;;;;;;5071186;28;20198;-78
2021/05/14 00:25:26;;;;;;;6.90;6.40;;;9.40;99.90;;;;;;5066628;28;20260;-77
2021/05/14 00:27:52;;;;;;;6.87;6.37;;;9.40;99.90;;;;;;5070402;28;20285;-77
2021/05/14 00:30:19;;;;;;;6.90;6.40;;;9.40;99.90;;;;;;5071722;28;20221;-77
2021/05/14 00:32:46;;;;;;;7.20;6.70;;;9.30;99.90;;;;;;5067703;28;20530;-77
2021/05/14 00:35:13;;;;;;;7.00;6.40;;;9.30;99.90;;;;;;5071983;28;20216;-77
2021/05/14 00:37:40;;;;;;;7.20;6.70;;;9.20;99.90;;;;;;5067063;28;20639;-77
2021/05/14 00:40:08;;;;;;;7.23;6.73;;;9.20;99.90;;;;;;5064815;28;20195;-77
2021/05/14 00:42:35;;;;;;;7.03;6.43;;;9.20;99.90;;;;;;5072710;28;20194;-77
2021/05/14 00:45:01;;;;;;;7.40;6.70;;;9.20;99.90;;;;;;5071717;28;20268;-77
2021/05/14 00:47:28;;;;;;;7.10;6.60;;;9.20;99.90;;;;;;5068309;28;20214;-78
2021/05/14 00:49:55;;;;;;;6.90;6.40;;;9.10;99.90;;;;;;5070798;28;20199;-77
2021/05/14 00:52:22;;;;;;;6.70;6.30;;;9.10;99.90;;;;;;5067628;28;20205;-78
2021/05/14 00:54:49;;;;;;;7.10;6.50;;;9.10;99.90;;;;;;5069611;28;20195;-78
2021/05/14 00:57:17;;;;;;;7.03;6.53;;;9.00;99.90;;;;;;5069248;28;20233;-77
2021/05/14 00:59:44;;;;;;;6.87;6.30;;;8.90;99.90;;;;;;5068902;28;20201;-77
2021/05/14 01:02:10;;;;;;;6.40;6.00;;;8.90;99.90;;;;;;5070520;28;20210;-78
2021/05/14 01:04:37;;;;;;;7.17;6.57;;;8.80;99.90;;;;;;5064095;28;20217;-78
2021/05/14 01:07:06;;;;;;;6.77;6.27;;;8.80;99.90;;;;;;5064214;28;20697;-77
2021/05/14 01:09:33;;;;;;;6.70;6.20;;;8.80;99.90;;;;;;5061041;28;20190;-77
2021/05/14 01:12:00;;;;;;;6.70;6.20;;;8.80;99.90;;;;;;5068858;28;20201;-75
2021/05/14 01:14:27;;;;;;;6.30;5.90;;;8.80;99.90;;;;;;5066594;28;20193;-76
2021/05/14 01:16:53;;;;;;;6.60;6.20;;;8.80;99.90;;;;;;5063956;28;20230;-75
2021/05/14 01:19:20;;;;;;;6.80;6.33;;;8.80;99.90;;;;;;5062834;28;20196;-76
2021/05/14 01:21:47;;;;;;;6.90;6.20;;;8.70;99.90;;;;;;5063997;28;20197;-76
2021/05/14 01:24:14;;;;;;;6.40;6.00;;;8.60;99.90;;;;;;5067823;28;20272;-76
2021/05/14 01:26:40;;;;;;;7.33;6.83;;;8.50;99.90;;;;;;5063028;28;20208;-76
2021/05/14 01:29:08;;;;;;;7.07;6.57;;;8.40;99.90;;;;;;5068582;28;20596;-76
2021/05/14 01:31:35;;;;;;;7.20;6.60;;;8.30;99.90;;;;;;5067643;28;20283;-76
2021/05/14 01:34:01;;;;;;;6.67;6.20;;;8.30;99.90;;;;;;5062386;28;20200;-76
2021/05/14 01:36:27;;;;;;;7.33;6.83;;;8.20;99.90;;;;;;5063972;28;20200;-77
2021/05/14 01:38:54;;;;;;;7.47;6.97;;;8.20;99.90;;;;;;5063695;28;20264;-76
2021/05/14 01:41:21;;;;;;;6.73;6.27;;;8.10;99.90;;;;;;5065424;28;20217;-76
2021/05/14 01:43:47;;;;;;;6.60;6.13;;;8.10;99.90;;;;;;5068244;28;20215;-76
2021/05/14 01:46:14;;;;;;;7.00;6.40;;;8.00;99.90;;;;;;5063656;28;20619;-76
2021/05/14 01:48:40;;;;;;;7.00;6.60;;;7.90;99.90;;;;;;5068046;28;20221;-75
2021/05/14 01:51:11;;;;;;;6.73;6.27;;;7.80;99.90;;;;;;5063128;28;20249;-76
2021/05/14 01:53:37;;;;;;;6.83;6.40;;;7.80;99.90;;;;;;5062076;28;20737;-76
2021/05/14 01:56:05;;;;;;;7.03;6.53;;;7.70;99.90;;;;;;5061841;28;20721;-75
2021/05/14 01:58:31;;;;;;;7.23;6.63;;;7.70;99.90;;;;;;5065116;28;20803;-75
2021/05/14 02:00:57;;;;;;;7.10;6.50;;;7.70;99.90;;;;;;5068137;28;20200;-76
2021/05/14 02:03:24;;;;;;;7.17;6.67;;;7.60;99.90;;;;;;5065443;28;20212;-76
2021/05/14 02:05:50;;;;;;;6.97;6.47;;;7.60;99.90;;;;;;5062080;28;20261;-75
2021/05/14 02:08:17;;;;;;;7.40;6.80;;;7.60;99.90;;;;;;5063262;28;20234;-76
2021/05/14 02:10:43;;;;;;;7.20;6.70;;;7.50;99.90;;;;;;5062001;28;20220;-75
2021/05/14 02:13:10;;;;;;;7.70;7.10;;;7.40;99.90;;;;;;5067737;28;20188;-75
2021/05/14 02:15:36;;;;;;;7.70;7.20;;;7.40;99.90;;;;;;5067258;28;20200;-75
2021/05/14 02:18:03;;;;;;;8.00;7.50;;;7.40;99.90;;;;;;5096806;22;20293;-77
2021/05/14 02:20:29;;;;;;;7.20;6.70;;;7.40;99.90;;;;;;5081213;28;20199;-77
2021/05/14 02:22:55;;;;;;;7.23;6.73;;;7.40;99.90;;;;;;5082975;28;20206;-77
2021/05/14 02:25:22;;;;;;;7.77;7.20;;;7.40;99.90;;;;;;5081770;28;20214;-77
2021/05/14 02:27:48;;;;;;;8.10;7.60;;;7.40;99.90;;;;;;5082939;28;20225;-77
2021/05/14 02:30:18;;;;;;;8.07;7.57;;;7.40;99.90;;;;;;5096204;28;20205;-77
2021/05/14 02:32:44;;;;;;;7.97;7.30;;;7.30;99.90;;;;;;5103020;28;20733;-77
2021/05/14 02:35:16;;;;;;;8.23;7.70;;;7.30;99.90;;;;;;5099341;28;20405;-80
2021/05/14 02:37:44;;;;;;;7.40;6.90;;;7.40;99.90;;;;;;5079884;28;20389;-78
2021/05/14 02:40:11;;;;;;;8.07;7.37;;;7.40;99.90;;;;;;5102395;28;20194;-77
2021/05/14 02:42:37;;;;;;;7.93;7.33;;;7.40;99.90;;;;;;5101952;28;20271;-79
2021/05/14 02:45:05;;;;;;;7.63;6.93;;;7.50;99.90;;;;;;5112411;28;20562;-78
2021/05/14 02:47:32;;;;;;;7.30;6.80;;;7.40;99.90;;;;;;5103205;28;20217;-78
2021/05/14 02:49:58;;;;;;;7.37;6.87;;;7.50;99.90;;;;;;5115509;28;20195;-79
2021/05/14 02:52:25;;;;;;;7.60;7.10;;;7.50;99.90;;;;;;5106757;28;20620;-78
2021/05/14 02:54:55;;;;;;;7.87;7.37;;;7.50;99.90;;;;;;5089022;28;20202;-77
2021/05/14 02:57:23;;;;;;;8.50;7.90;;;7.50;99.90;;;;;;5109848;28;20222;-77
2021/05/14 02:59:49;;;;;;;7.07;6.67;;;7.50;99.90;;;;;;5083334;28;20203;-79
2021/05/14 03:02:16;;;;;;;7.50;7.00;;;7.50;99.90;;;;;;5088032;28;20722;-77
2021/05/14 03:04:43;;;;;;;7.40;6.90;;;7.50;99.90;;;;;;5090915;28;20351;-78
2021/05/14 03:07:09;;;;;;;8.00;7.30;;;7.40;99.90;;;;;;5079595;28;20205;-78
2021/05/14 03:09:36;;;;;;;7.93;7.43;;;7.40;99.90;;;;;;5073077;28;20671;-78
2021/05/14 03:12:03;;;;;;;8.23;7.73;;;7.30;99.90;;;;;;5070781;28;20200;-78
2021/05/14 03:14:30;;;;;;;7.50;7.00;;;7.20;99.90;;;;;;5079159;28;20194;-78
2021/05/14 03:16:56;;;;;;;7.80;7.20;;;7.10;99.90;;;;;;5082434;28;20195;-80
2021/05/14 03:19:22;;;;;;;7.77;7.27;;;7.10;99.90;;;;;;5085851;28;20226;-79
2021/05/14 03:21:49;;;;;;;8.30;7.80;;;7.00;99.90;;;;;;5081570;28;20201;-80
2021/05/14 03:24:16;;;;;;;7.33;6.83;;;7.00;99.90;;;;;;5090125;28;20687;-78
2021/05/14 03:26:47;;;;;;;7.60;7.20;;;6.90;99.90;;;;;;5099461;28;20199;-79
2021/05/14 03:29:14;;;;;;;7.90;7.40;;;6.90;99.90;;;;;;5101468;28;20218;-79
2021/05/14 03:31:40;;;;;;;8.17;7.57;;;6.80;99.90;;;;;;5106147;28;20659;-78
2021/05/14 03:34:06;;;;;;;8.83;8.30;;;6.80;99.90;;;;;;5094234;28;20232;-78
2021/05/14 03:36:33;;;;;;;8.40;7.90;;;6.80;99.90;;;;;;5087535;28;20194;-76
2021/05/14 03:39:00;;;;;;;8.60;7.80;;;6.80;99.90;;;;;;5083844;28;20218;-79
2021/05/14 03:41:32;;;;;;;8.17;7.67;;;6.70;99.90;;;;;;5079848;28;20209;-79
2021/05/14 03:43:59;;;;;;;8.60;7.97;;;6.60;99.90;;;;;;5108039;28;20202;-79
2021/05/14 03:46:27;;;;;;;7.90;7.40;;;6.70;99.90;;;;;;5084351;28;20198;-78
2021/05/14 03:48:53;;;;;;;8.50;7.80;;;6.70;99.90;;;;;;5092396;28;20221;-78
2021/05/14 03:51:20;;;;;;;8.30;7.70;;;6.80;99.90;;;;;;5105852;28;20269;-78
2021/05/14 03:53:46;;;;;;;8.10;7.60;;;6.80;99.90;;;;;;5088972;28;20202;-78
2021/05/14 03:56:13;;;;;;;8.63;7.93;;;6.70;99.90;;;;;;5074993;28;20219;-79
2021/05/14 03:58:40;;;;;;;8.60;7.90;;;6.70;99.90;;;;;;5064700;28;20601;-78
2021/05/14 04:01:06;;;;;;;8.60;8.00;;;6.70;99.90;;;;;;5067416;28;20193;-78
2021/05/14 04:03:33;;;;;;;8.13;7.50;;;6.70;99.90;;;;;;5082638;28;20192;-78
2021/05/14 04:05:59;;;;;;;8.37;7.77;;;6.60;99.90;;;;;;5067355;28;20199;-79
2021/05/14 04:08:26;;;;;;;8.70;8.07;;;6.60;99.90;;;;;;5069049;28;20226;-77
2021/05/14 04:11:17;;;;;;;8.90;8.30;;;6.70;99.90;;;;;;5064970;28;20675;-77
2021/05/14 04:16:28;;;;;;;8.90;8.30;;;6.70;99.90;;;;;;5082725;28;20408;-77
2021/05/14 04:18:54;;;;;;;8.20;7.60;;;6.70;99.90;;;;;;5081118;28;20231;-76
2021/05/14 04:21:21;;;;;;;8.13;7.63;;;6.70;99.90;;;;;;5061661;28;20627;-76
2021/05/14 04:23:47;;;;;;;8.90;8.20;;;6.80;99.90;;;;;;5078484;28;20223;-80
2021/05/14 04:26:13;;;;;;;8.70;8.00;;;6.70;99.90;;;;;;5092648;28;21535;-80
2021/05/14 04:28:40;;;;;;;7.97;7.40;;;6.80;99.90;;;;;;5062101;28;20225;-80
2021/05/14 04:31:07;;;;;;;8.07;7.57;;;7.10;99.90;;;;;;5086082;28;20190;-79
2021/05/14 04:33:33;;;;;;;8.00;7.50;;;7.20;99.90;;;;;;5072647;28;20207;-79
2021/05/14 04:35:59;;;;;;;8.30;7.73;;;7.20;99.90;;;;;;5077356;28;20216;-79
2021/05/14 04:38:26;;;;;;;8.10;7.50;;;7.30;99.90;;;;;;5113928;28;20235;-79
2021/05/14 04:40:52;;;;;;;8.40;7.80;;;7.50;99.90;;;;;;5100458;28;20213;-79
2021/05/14 04:43:20;;;;;;;8.13;7.53;;;7.90;99.90;;;;;;5106609;28;20218;-79
2021/05/14 04:45:46;;;;;;;8.27;7.77;;;8.50;99.90;;;;;;5098961;28;20720;-80
2021/05/14 04:48:14;;;;;;;3.87;3.57;;;9.00;99.90;;;;;;5096067;28;20249;-80
2021/05/14 04:50:40;;;;;;;4.43;3.80;;;9.40;99.90;;;;;;5100640;28;20195;-80
2021/05/14 04:53:09;;;;;;;5.60;5.20;;;9.60;99.90;;;;;;5115823;28;20204;-79
2021/05/14 04:55:36;;;;;;;3.73;3.43;;;9.80;99.90;;;;;;5100535;28;20226;-79
2021/05/14 04:58:02;;;;;;;5.73;5.33;;;10.30;99.90;;;;;;5099354;28;20210;-80
2021/05/14 05:00:29;;;;;;;3.33;3.03;;;10.40;99.90;;;;;;5099185;28;20637;-80
2021/05/14 05:02:55;;;;;;;4.40;4.10;;;10.50;99.90;;;;;;5115665;28;20193;-80
2021/05/14 05:05:23;;;;;;;7.80;7.30;;;10.60;99.90;;;;;;5117656;28;20227;-80
2021/05/14 05:07:50;;;;;;;7.47;7.00;;;10.70;99.90;;;;;;5094749;28;20213;-79
2021/05/14 05:10:18;;;;;;;7.60;7.20;;;10.80;99.90;;;;;;5085230;28;20235;-79
2021/05/14 05:12:44;;;;;;;7.70;7.20;;;10.90;99.90;;;;;;5091868;28;20202;-78
2021/05/14 05:15:12;;;;;;;8.03;7.33;;;11.10;99.90;;;;;;5081964;28;20671;-80
2021/05/14 05:17:38;;;;;;;8.47;7.87;;;11.20;99.90;;;;;;5082015;28;20237;-79
2021/05/14 05:20:06;;;;;;;7.67;7.17;;;11.20;99.90;;;;;;5063660;28;20216;-76
2021/05/14 05:22:34;;;;;;;7.40;7.00;;;11.10;99.90;;;;;;5056824;28;20190;-77
2021/05/14 05:25:00;;;;;;;6.90;6.50;;;11.30;99.90;;;;;;5076182;28;20214;-77
2021/05/14 05:27:27;;;;;;;7.40;6.90;;;11.60;99.90;;;;;;5074847;28;20587;-76
2021/05/14 05:29:53;;;;;;;7.60;6.90;;;11.90;99.90;;;;;;5062769;28;20724;-76
2021/05/14 05:32:20;;;;;;;4.40;4.10;;;12.20;99.90;;;;;;5094814;28;20244;-78
2021/05/14 05:34:46;;;;;;;4.17;3.77;;;12.50;99.90;;;;;;5100877;28;20542;-78
2021/05/14 05:37:13;;;;;;;8.03;7.40;;;12.80;99.90;;;;;;5107198;28;20208;-77
2021/05/14 05:39:40;;;;;;;6.73;4.53;;;13.20;99.90;;;;;;5073333;28;20209;-77
2021/05/14 05:42:06;;;;;;;6.67;6.17;;;13.60;99.90;;;;;;5108447;28;20200;-77
2021/05/14 05:44:33;;;;;;;3.83;3.60;;;14.00;99.90;;;;;;5100462;28;20549;-78
2021/05/14 05:46:59;;;;;;;2.30;2.20;;;14.40;99.90;;;;;;5105768;28;20204;-77
2021/05/14 05:49:25;;;;;;;4.03;3.47;;;14.60;99.90;;;;;;5063525;28;20292;-78
2021/05/14 05:51:53;;;;;;;4.07;3.77;;;14.50;99.90;;;;;;5066187;28;20198;-78
2021/05/14 05:54:19;;;;;;;3.60;3.30;;;14.30;99.90;;;;;;5065577;28;20201;-78
2021/05/14 05:56:48;;;;;;;4.20;3.90;;;14.10;99.90;;;;;;5082720;28;20198;-78
2021/05/14 05:59:17;;;;;;;4.23;3.93;;;13.70;99.90;;;;;;5067469;28;20252;-78
2021/05/14 06:01:44;;;;;;;5.40;5.10;;;13.40;99.90;;;;;;5081420;28;20197;-78
2021/05/14 06:04:10;;;;;;;5.23;4.90;;;13.20;99.90;;;;;;5081807;28;20206;-79
2021/05/14 06:06:36;;;;;;;5.40;5.10;;;13.20;99.90;;;;;;5105974;28;20193;-78
2021/05/14 06:09:03;;;;;;;5.03;4.73;;;13.40;99.90;;;;;;5083000;28;20240;-77
2021/05/14 06:11:30;;;;;;;6.13;5.80;;;13.40;99.90;;;;;;5090490;28;20246;-79
2021/05/14 06:13:57;;;;;;;6.77;6.37;;;13.40;99.90;;;;;;5104511;28;20189;-79
2021/05/14 06:16:23;;;;;;;7.80;7.20;;;13.10;99.90;;;;;;5084009;28;20197;-79
2021/05/14 06:18:55;;;;;;;8.00;7.30;;;12.90;99.90;;;;;;5104284;28;20624;-79
2021/05/14 06:21:21;;;;;;;7.20;6.70;;;12.90;99.90;;;;;;5084235;28;20216;-79
2021/05/14 06:23:47;;;;;;;7.00;6.60;;;13.40;99.90;;;;;;5090442;28;20694;-79
2021/05/14 06:26:15;;;;;;;8.00;7.30;;;13.70;99.90;;;;;;5083310;28;20205;-78
2021/05/14 06:28:42;;;;;;;7.27;6.70;;;14.00;99.90;;;;;;5108587;28;20724;-79
2021/05/14 06:31:09;;;;;;;6.70;6.20;;;14.30;99.90;;;;;;5073230;28;20190;-78
2021/05/14 06:33:35;;;;;;;6.60;6.20;;;14.40;99.90;;;;;;5080778;28;20197;-78
2021/05/14 06:36:02;;;;;;;7.10;6.50;;;14.90;99.90;;;;;;5102776;28;20205;-77
2021/05/14 06:38:28;;;;;;;6.43;6.03;;;15.20;99.90;;;;;;5100575;28;20585;-79
2021/05/14 06:40:54;;;;;;;6.27;5.87;;;15.50;99.90;;;;;;5101496;28;21091;-78
2021/05/14 06:43:21;;;;;;;6.47;5.97;;;15.80;99.90;;;;;;5082982;28;20209;-78
2021/05/14 06:45:48;;;;;;;6.40;6.00;;;16.10;99.90;;;;;;5082690;28;20588;-78
2021/05/14 06:48:15;;;;;;;5.57;5.07;;;16.30;99.90;;;;;;5082665;28;20216;-78
2021/05/14 06:50:42;;;;;;;7.40;6.90;;;16.60;99.90;;;;;;5083838;28;20218;-79
2021/05/14 06:53:09;;;;;;;7.00;6.60;;;17.20;99.90;;;;;;5070057;28;20658;-79
2021/05/14 06:55:36;;;;;;;7.00;6.40;;;17.70;99.90;;;;;;5104690;28;20200;-78
2021/05/14 06:58:04;;;;;;;6.77;6.30;;;18.10;99.90;;;;;;5083285;28;20312;-79
2021/05/14 07:00:30;;;;;;;6.60;6.13;;;18.40;99.90;;;;;;5081416;28;20212;-79
2021/05/14 07:02:56;;;;;;;5.10;4.80;;;18.70;99.90;;;;;;5103602;28;20204;-76
2021/05/14 07:05:24;;;;;;;5.87;5.57;;;19.00;99.90;;;;;;5088379;28;20215;-80
2021/05/14 07:07:52;;;;;;;7.13;6.73;;;18.60;99.90;;;;;;5084847;28;20214;-79
2021/05/14 07:10:19;;;;;;;7.43;7.03;;;18.70;99.90;;;;;;5063970;28;20249;-79
2021/05/14 07:12:45;;;;;;;7.57;7.10;;;19.10;99.90;;;;;;5084008;28;20188;-79
2021/05/14 07:15:12;;;;;;;6.80;6.40;;;19.30;99.90;;;;;;5082983;28;20204;-79
2021/05/14 07:17:39;;;;;;;7.30;6.80;;;19.50;99.90;;;;;;5077071;28;20743;-79
2021/05/14 07:20:07;;;;;;;6.40;6.00;;;19.40;99.90;;;;;;5077397;28;20204;-78
2021/05/14 07:22:34;;;;;;;6.93;6.53;;;19.60;99.90;;;;;;5099500;28;20203;-77
2021/05/14 07:25:00;;;;;;;6.80;6.40;;;19.80;99.90;;;;;;5083684;28;20218;-79
2021/05/14 07:27:27;;;;;;;7.20;6.80;;;19.70;99.90;;;;;;5097934;28;20245;-79
2021/05/14 07:29:53;;;;;;;6.90;6.50;;;19.70;99.90;;;;;;5070385;28;20200;-78
2021/05/14 07:32:20;;;;;;;6.80;6.40;;;20.00;99.90;;;;;;5068615;28;20237;-78
2021/05/14 07:34:46;;;;;;;6.70;6.30;;;19.90;99.90;;;;;;5086236;28;20275;-79
2021/05/14 07:37:12;;;;;;;7.10;6.70;;;20.10;99.90;;;;;;5070511;28;20212;-79
2021/05/14 07:39:40;;;;;;;7.03;6.63;;;20.10;99.90;;;;;;5102439;28;20192;-79
2021/05/14 07:42:07;;;;;;;6.70;6.30;;;20.30;99.90;;;;;;5091716;28;20242;-79
2021/05/14 07:44:35;;;;;;;7.20;6.80;;;20.40;99.90;;;;;;5089850;28;20301;-77
2021/05/14 07:47:01;;;;;;;7.10;6.70;;;20.40;99.90;;;;;;5104899;28;20200;-77
2021/05/14 07:49:28;;;;;;;7.33;6.83;;;20.30;99.90;;;;;;5097616;28;20205;-81
2021/05/14 07:51:54;;;;;;;7.33;6.83;;;20.50;99.90;;;;;;5087473;28;20204;-83
2021/05/14 07:54:20;;;;;;;6.83;6.43;;;20.70;99.90;;;;;;5092713;28;20225;-82
2021/05/14 07:56:48;;;;;;;6.67;6.33;;;20.20;99.90;;;;;;5090382;28;20711;-83
2021/05/14 07:59:14;;;;;;;6.43;6.13;;;20.40;99.90;;;;;;5101896;28;20241;-82
2021/05/14 08:01:40;;;;;;;6.40;6.00;;;20.50;99.90;;;;;;5091848;28;20246;-82
2021/05/14 08:04:07;;;;;;;6.07;5.77;;;20.70;99.90;;;;;;5094735;28;20411;-83
2021/05/14 08:06:34;;;;;;;6.20;5.90;;;20.80;99.90;;;;;;5090145;28;20722;-83
2021/05/14 08:09:05;;;;;;;6.30;5.97;;;20.90;99.90;;;;;;5091880;28;20271;-82
2021/05/14 08:11:31;;;;;;;6.20;5.90;;;21.10;99.90;;;;;;5086577;28;20208;-82
2021/05/14 08:13:58;;;;;;;6.50;6.00;;;21.20;99.90;;;;;;5086475;28;20205;-82
2021/05/14 08:16:24;;;;;;;6.50;6.10;;;21.40;99.90;;;;;;5101092;28;20673;-82
2021/05/14 08:18:51;;;;;;;6.40;6.10;;;21.40;99.90;;;;;;5087791;22;20226;-77
2021/05/14 08:21:18;;;;;;;6.53;6.13;;;21.40;99.90;;;;;;5058458;28;20233;-77
2021/05/14 08:23:44;;;;;;;6.40;6.10;;;21.60;99.90;;;;;;5074109;28;20194;-79
2021/05/14 08:26:12;;;;;;;6.47;6.07;;;21.70;99.90;;;;;;5073640;28;20194;-79
2021/05/14 08:28:38;;;;;;;6.50;6.13;;;21.80;99.90;;;;;;5059527;28;20217;-76
2021/05/14 08:31:05;;;;;;;6.63;6.23;;;21.70;99.90;;;;;;5087691;28;20197;-80
2021/05/14 08:33:32;;;;;;;7.27;6.77;;;21.90;99.90;;;;;;5081825;28;20742;-81
2021/05/14 08:35:58;;;;;;;8.10;7.50;;;22.30;99.90;;;;;;5084767;28;20182;-80
2021/05/14 08:38:26;;;;;;;6.63;6.20;;;22.40;99.10;;;;;;5074170;28;20222;-78
2021/05/14 08:40:53;;;;;;;6.97;6.57;;;22.40;99.80;;;;;;5083172;28;20281;-79
2021/05/14 08:43:19;;;;;;;6.23;5.93;;;22.60;98.00;;;;;;5070712;28;20224;-77
2021/05/14 08:45:45;;;;;;;6.00;5.70;;;21.80;98.40;;;;;;5062353;28;20218;-77
2021/05/14 08:48:13;;;;;;;6.17;5.77;;;21.30;98.20;;;;;;5089984;28;20236;-77
2021/05/14 08:50:41;;;;;;;6.40;6.10;;;21.60;98.20;;;;;;5086744;28;20306;-77
2021/05/14 08:53:08;;;;;;;6.73;6.33;;;21.80;96.90;;;;;;5067881;28;20217;-77
2021/05/14 08:55:37;;;;;;;7.00;6.60;;;22.10;97.30;;;;;;5069122;28;20202;-77
2021/05/14 08:58:03;;;;;;;7.00;6.60;;;22.30;97.60;;;;;;5092948;28;20230;-77
2021/05/14 09:00:29;;;;;;;8.00;7.50;;;22.40;97.60;;;;;;5090495;28;20194;-77
2021/05/14 09:02:56;;;;;;;7.70;7.30;;;22.70;97.70;;;;;;5088314;28;20652;-77
2021/05/14 09:05:29;;;;;;;6.17;5.77;;;22.70;96.10;;;;;;5087639;28;20206;-77
2021/05/14 09:07:58;;;;;;;6.27;5.90;;;22.30;96.70;;;;;;5069856;28;20220;-77
2021/05/14 09:10:25;;;;;;;5.87;5.57;;;22.40;95.90;;;;;;5088073;28;20200;-77
2021/05/14 09:12:51;;;;;;;3.60;3.40;;;22.60;97.70;;;;;;5087976;28;20186;-77
2021/05/14 09:15:26;;;;;;;3.53;3.20;;;22.60;97.10;;;;;;5091127;28;20191;-77
2021/05/14 09:18:10;;;;;;;3.57;3.37;;;22.80;96.80;;;;;;5067529;28;20257;-77
2021/05/14 09:20:39;;;;;;;5.30;5.00;;;23.10;94.30;;;;;;5069906;28;20209;-77
2021/05/14 09:23:41;;;;;;;5.40;5.03;;;23.30;93.40;;;;;;5077717;28;20193;-77
2021/05/14 09:26:10;;;;;;;2.80;2.60;;;23.40;95.10;;;;;;5087333;28;20251;-78
2021/05/14 09:28:38;;;;;;;4.43;4.17;;;23.20;94.00;;;;;;5069418;28;20330;-77
2021/05/14 09:31:11;;;;;;;6.47;6.07;;;22.10;94.50;;;;;;5069159;28;20676;-77
2021/05/14 09:33:39;;;;;;;6.30;5.90;;;21.30;95.70;;;;;;5083735;28;20194;-77
2021/05/14 09:36:08;;;;;;;6.07;5.77;;;21.60;96.50;;;;;;5092347;28;20195;-77
2021/05/14 09:38:43;;;;;;;6.67;6.27;;;22.00;96.80;;;;;;5090868;28;20241;-77
2021/05/14 09:41:23;;;;;;;6.40;5.80;;;22.40;96.30;;;;;;5088095;28;20181;-77
2021/05/14 09:43:54;;;;;;;6.00;5.60;;;22.80;95.60;;;;;;5073279;28;20197;-77
2021/05/14 09:46:25;;;;;;;6.30;5.90;;;22.40;95.10;;;;;;5065555;28;20206;-77
2021/05/14 09:48:56;;;;;;;6.10;5.70;;;21.80;95.50;;;;;;5092530;28;20277;-77
2021/05/14 09:51:24;;;;;;;6.30;5.90;;;22.20;96.00;;;;;;5065550;28;20209;-77
2021/05/14 09:53:50;;;;;;;6.10;5.70;;;22.30;95.80;;;;;;5061537;28;20193;-77
2021/05/14 09:56:26;;;;;;;6.63;6.20;;;22.20;94.90;;;;;;5071236;28;20203;-78
2021/05/14 09:58:54;;;;;;;6.40;6.00;;;21.80;95.30;;;;;;5079617;28;20213;-78
2021/05/14 10:01:21;;;;;;;6.47;6.13;;;21.90;96.10;;;;;;5069938;28;20232;-77
2021/05/14 10:03:48;;;;;;;6.90;6.30;;;22.40;95.80;;;;;;5084996;28;20631;-78
2021/05/14 10:06:16;;;;;;;6.40;6.00;;;22.70;95.60;;;;;;5093565;28;20276;-77
2021/05/14 10:08:49;;;;;;;6.60;6.10;;;22.70;93.10;;;;;;5063271;28;20230;-77
2021/05/14 10:11:16;;;;;;;6.57;6.07;;;22.30;94.10;;;;;;5073011;28;20339;-78
2021/05/14 10:13:43;;;;;;;6.33;5.93;;;22.30;93.90;;;;;;5067291;28;20251;-77
2021/05/14 10:16:09;;;;;;;6.40;6.00;;;22.10;95.00;;;;;;5082846;28;20187;-77
2021/05/14 10:18:37;;;;;;;6.03;5.73;;;22.00;94.10;;;;;;5086223;28;20230;-77
2021/05/14 10:21:08;;;;;;;6.30;6.00;;;21.80;94.20;;;;;;5092522;28;20573;-77
2021/05/14 10:23:36;;;;;;;6.63;6.13;;;21.40;95.00;;;;;;5065312;28;20666;-77
2021/05/14 10:26:07;;;;;;;6.60;6.20;;;21.20;94.70;;;;;;5094067;28;20213;-77
2021/05/14 10:28:39;;;;;;;6.20;5.87;;;21.10;94.70;;;;;;5093880;28;20213;-78
2021/05/14 10:31:20;;;;;;;6.03;5.70;;;21.00;94.60;;;;;;5065827;28;20252;-77
2021/05/14 10:33:49;;;;;;;6.20;5.90;;;21.20;94.80;;;;;;5087039;28;20206;-78
2021/05/14 10:36:47;;;;;;;6.10;5.80;;;21.60;94.70;;;;;;5076882;28;20198;-81
2021/05/14 10:39:27;;;;;;;5.40;5.10;;;22.20;93.80;;;;;;4979582;28;20710;-78
2021/05/14 10:42:01;;;;;;;6.47;5.83;;;22.60;94.20;;;;;;5054897;28;20300;-79
2021/05/14 10:44:54;;;;;;;5.90;5.60;;;22.80;93.40;;;;;;5088848;28;20524;-79
2021/05/14 10:47:47;;;;;;;5.87;5.50;;;22.70;93.50;;;;;;5051005;28;20252;-80
2021/05/14 10:50:38;;;;;;;5.90;5.50;;;22.90;92.40;;;;;;5090561;28;20194;-79
2021/05/14 10:53:29;;;;;;;5.80;5.40;;;22.40;93.40;;;;;;5070042;28;20205;-79
2021/05/14 10:56:15;;;;;;;5.60;5.30;;;21.90;94.30;;;;;;5088635;28;20284;-80
2021/05/14 10:58:47;;;;;;;5.63;5.33;;;21.40;93.40;;;;;;5072183;28;20579;-79
2021/05/14 11:01:43;;;;;;;5.30;5.00;;;21.20;94.40;;;;;;5069671;28;20222;-78
2021/05/14 11:04:45;;;;;;;6.03;5.10;;;21.10;94.60;;;;;;5007763;28;20212;-79
2021/05/14 11:07:34;;;;;;;5.27;4.97;;;21.50;94.50;;;;;;5091942;28;20209;-77
2021/05/14 11:10:26;;;;;;;5.27;5.00;;;21.50;94.50;;;;;;5089275;28;20194;-79
2021/05/14 11:12:53;;;;;;;5.20;4.90;;;20.90;93.90;;;;;;5096049;28;20197;-77
2021/05/14 11:15:39;;;;;;;5.30;5.00;;;20.40;95.30;;;;;;5089330;28;20198;-78
2021/05/14 11:18:25;;;;;;;5.13;4.90;;;20.10;94.70;;;;;;5094143;28;20221;-77
2021/05/14 11:20:54;;;;;;;5.50;5.20;;;19.60;94.70;;;;;;5069185;28;20292;-77
2021/05/14 11:23:34;;;;;;;5.33;4.93;;;19.70;96.20;;;;;;5096728;28;20252;-78
2021/05/14 11:26:01;;;;;;;5.20;4.90;;;20.00;95.40;;;;;;5093023;28;20238;-78
2021/05/14 11:28:41;;;;;;;5.20;4.90;;;20.30;94.90;;;;;;5073385;28;20227;-77
2021/05/14 11:31:17;;;;;;;5.30;4.90;;;20.50;95.60;;;;;;5066889;28;20289;-77
2021/05/14 11:33:45;;;;;;;5.37;5.07;;;20.70;94.30;;;;;;5072258;28;20211;-77
2021/05/14 11:36:12;;;;;;;5.30;5.00;;;20.60;93.30;;;;;;5067357;28;20194;-77
2021/05/14 11:38:44;;;;;;;5.10;4.80;;;20.60;94.00;;;;;;5072267;28;20226;-77
2021/05/14 11:41:14;;;;;;;5.10;4.80;;;20.70;93.90;;;;;;5074788;28;20197;-78
2021/05/14 11:43:51;;;;;;;5.07;4.87;;;20.50;93.10;;;;;;5062313;28;20567;-78
2021/05/14 11:46:18;;;;;;;5.33;5.03;;;20.40;93.30;;;;;;5070290;28;20710;-79
2021/05/14 11:48:44;;;;;;;5.37;5.00;;;20.40;94.30;;;;;;5062127;28;20227;-79
2021/05/14 11:51:14;;;;;;;5.60;5.20;;;20.40;94.60;;;;;;5069620;28;20206;-79
2021/05/14 11:53:41;;;;;;;5.30;5.00;;;20.50;94.10;;;;;;5066244;28;20204;-78
2021/05/14 11:56:07;;;;;;;4.90;4.60;;;20.40;94.10;;;;;;5087390;28;20278;-79
2021/05/14 11:58:34;;;;;;;5.00;4.70;;;20.50;93.40;;;;;;5092037;28;20232;-78
2021/05/14 12:01:03;;;;;;;4.87;4.47;;;20.60;93.30;;;;;;5063972;28;20205;-80
2021/05/14 12:03:30;;;;;;;4.70;4.50;;;20.40;92.20;;;;;;5075955;28;20208;-80
2021/05/14 12:06:04;;;;;;;5.27;4.97;;;20.10;92.00;;;;;;5074865;28;20215;-80
2021/05/14 12:08:31;;;;;;;4.73;4.53;;;19.80;92.70;;;;;;5066706;28;20253;-80
2021/05/14 12:11:00;;;;;;;5.10;4.70;;;19.60;92.90;;;;;;5069773;28;20203;-79
2021/05/14 12:13:28;;;;;;;6.23;5.63;;;19.70;94.40;;;;;;5093954;28;20674;-79
2021/05/14 12:15:59;;;;;;;5.20;4.83;;;19.90;94.60;;;;;;5088381;28;20199;-79
2021/05/14 12:18:26;;;;;;;5.50;5.10;;;20.10;94.00;;;;;;5092627;28;20236;-80
2021/05/14 12:20:55;;;;;;;5.10;4.80;;;20.30;94.00;;;;;;5070583;28;20625;-80
2021/05/14 12:23:24;;;;;;;5.30;5.00;;;20.20;93.90;;;;;;5068440;28;20230;-79
2021/05/14 12:25:52;;;;;;;6.03;5.73;;;20.20;92.90;;;;;;5095342;28;20252;-79
2021/05/14 12:28:41;;;;;;;5.30;5.00;;;20.20;92.00;;;;;;5093321;28;20577;-80
2021/05/14 12:31:09;;;;;;;5.60;5.20;;;20.50;91.40;;;;;;5097220;28;20636;-79
2021/05/14 12:33:47;;;;;;;5.00;4.80;;;20.70;90.40;;;;;;5067708;28;20199;-79
2021/05/14 12:36:15;;;;;;;5.00;4.70;;;20.90;91.00;;;;;;5087086;28;20201;-79
2021/05/14 12:38:44;;;;;;;5.20;4.90;;;21.00;90.00;;;;;;5095756;28;20226;-80
2021/05/14 12:41:28;;;;;;;5.40;5.10;;;21.20;91.00;;;;;;5081704;28;20198;-80
2021/05/14 12:44:12;;;;;;;5.00;4.70;;;21.20;90.60;;;;;;5074772;28;20208;-80
2021/05/14 12:46:59;;;;;;;5.00;4.70;;;21.10;90.50;;;;;;5072873;28;20216;-80
2021/05/14 12:49:26;;;;;;;5.53;5.23;;;21.20;90.70;;;;;;5088997;28;20697;-80
2021/05/14 12:52:02;;;;;;;5.37;5.07;;;21.20;89.40;;;;;;5096483;28;20208;-80
2021/05/14 12:54:29;;;;;;;5.60;5.20;;;21.30;86.90;;;;;;5092341;28;20253;-80
2021/05/14 12:56:55;;;;;;;5.23;5.03;;;21.20;83.50;;;;;;5066879;28;20278;-81
2021/05/14 12:59:21;;;;;;;3.03;2.80;;;21.20;84.30;;;;;;5070527;28;20237;-81
2021/05/14 13:01:49;;;;;;;5.80;5.50;;;20.80;90.40;;;;;;5072604;28;20277;-79